ΕΜΥ, Εθνική Μετεωρολογική Υπηρεσία - Δελτία Καιρού, Προγνώσεις

ΑΕΡΟΝΑΥΤΙΛΙΑ

GREEK AIRPORTS CODES

LGKC 191150Z 06008KT 9999 FEW015TCU BKN016 19/16 Q1021=

EUROPEAN AIRPORTS CODES